createdAt,value
2019-05-09T00:02:38.027Z,2.72
2019-05-09T00:05:07.692Z,10.33
2019-05-09T00:07:39.305Z,9.78
2019-05-09T00:10:08.787Z,9.93
2019-05-09T00:12:37.854Z,10.27
2019-05-09T00:15:08.708Z,10.31
2019-05-09T00:17:38.004Z,10.07
2019-05-09T00:20:33.060Z,10.10
2019-05-09T00:23:03.324Z,10.19
2019-05-09T00:25:34.993Z,10.06
2019-05-09T00:28:07.137Z,9.94
2019-05-09T00:30:54.771Z,10.07
2019-05-09T00:33:30.986Z,10.26
2019-05-09T00:36:00.164Z,10.10
2019-05-09T00:38:55.447Z,10.28
2019-05-09T00:41:29.086Z,10.28
2019-05-09T00:44:05.374Z,10.28
2019-05-09T00:46:43.109Z,10.30
2019-05-09T00:49:17.042Z,10.48
2019-05-09T00:51:49.122Z,10.11
2019-05-09T00:54:24.012Z,9.86
2019-05-09T00:56:54.245Z,10.20
2019-05-09T00:59:24.071Z,10.26
2019-05-09T01:01:54.290Z,10.56
2019-05-09T01:04:24.298Z,10.41
2019-05-09T01:06:54.094Z,10.35
2019-05-09T01:09:24.192Z,10.47
2019-05-09T01:11:53.539Z,10.60
2019-05-09T01:14:23.612Z,10.72
2019-05-09T01:16:54.842Z,10.73
2019-05-09T01:19:28.521Z,10.51
2019-05-09T01:21:57.574Z,10.66
2019-05-09T01:24:27.098Z,10.64
2019-05-09T01:27:03.599Z,10.49
2019-05-09T01:29:34.332Z,10.33
2019-05-09T01:32:14.378Z,10.30
2019-05-09T01:34:43.746Z,10.49
2019-05-09T01:37:14.136Z,10.50
2019-05-09T01:39:46.560Z,10.60
2019-05-09T01:42:15.787Z,10.57
2019-05-09T01:44:45.136Z,10.66
2019-05-09T01:47:15.763Z,10.60
2019-05-09T01:49:47.551Z,11.23
2019-05-09T01:52:16.679Z,11.20
2019-05-09T01:54:47.425Z,11.20
2019-05-09T01:57:16.541Z,11.21
2019-05-09T01:59:48.079Z,10.99
2019-05-09T02:02:17.991Z,11.17
2019-05-09T02:04:47.088Z,10.82
2019-05-09T02:07:16.232Z,10.83
2019-05-09T02:09:45.305Z,10.63
2019-05-09T02:12:14.391Z,10.51
2019-05-09T02:14:50.350Z,10.50
2019-05-09T02:17:54.146Z,10.68
2019-05-09T02:20:16.483Z,10.77
2019-05-09T02:22:45.558Z,10.87
2019-05-09T02:25:16.254Z,10.83
2019-05-09T02:27:48.108Z,10.97
2019-05-09T02:30:18.714Z,10.97
2019-05-09T02:32:47.837Z,10.74
2019-05-09T02:35:16.937Z,10.68
2019-05-09T02:37:49.569Z,10.87
2019-05-09T02:40:24.819Z,11.16
2019-05-09T02:43:00.033Z,10.76
2019-05-09T02:45:33.710Z,10.46
2019-05-09T02:48:05.227Z,10.48
2019-05-09T02:50:38.414Z,10.54
2019-05-09T02:53:09.754Z,10.95
2019-05-09T02:55:38.876Z,10.48
2019-05-09T02:58:13.259Z,10.33
2019-05-09T03:00:53.472Z,10.36
2019-05-09T03:03:33.032Z,10.28
2019-05-09T03:06:02.206Z,10.70
2019-05-09T03:08:33.012Z,10.20
2019-05-09T03:11:03.430Z,10.23
2019-05-09T03:13:32.815Z,9.81
2019-05-09T03:16:14.714Z,9.76
2019-05-09T03:18:43.763Z,9.77
2019-05-09T03:21:21.873Z,9.98
2019-05-09T03:23:53.208Z,10.07
2019-05-09T03:26:29.078Z,10.28
2019-05-09T03:29:08.823Z,10.05
2019-05-09T03:31:41.408Z,10.10
2019-05-09T03:34:10.454Z,10.37
2019-05-09T03:36:39.514Z,10.43
2019-05-09T03:39:11.454Z,10.37
2019-05-09T03:41:40.870Z,10.54
2019-05-09T03:44:10.351Z,10.77
2019-05-09T03:47:04.123Z,10.88
2019-05-09T03:49:38.248Z,11.06
2019-05-09T03:52:08.158Z,10.79
2019-05-09T03:54:38.663Z,11.27
2019-05-09T03:57:28.222Z,11.66
2019-05-09T03:59:58.424Z,12.13
2019-05-09T04:02:28.969Z,12.10
2019-05-09T04:04:58.110Z,12.13
2019-05-09T04:07:27.770Z,12.05
2019-05-09T04:09:58.566Z,11.50
2019-05-09T04:12:28.325Z,11.67
2019-05-09T04:14:58.439Z,11.61
2019-05-09T04:17:42.910Z,11.58
2019-05-09T04:20:13.236Z,11.25
2019-05-09T04:22:42.333Z,12.57
2019-05-09T04:25:18.069Z,12.22
2019-05-09T04:27:52.906Z,12.39
2019-05-09T04:30:23.079Z,13.03
2019-05-09T04:32:53.244Z,12.93
2019-05-09T04:35:23.387Z,12.23
2019-05-09T04:37:52.423Z,11.14
2019-05-09T04:40:24.426Z,11.11
2019-05-09T04:43:10.859Z,11.39
2019-05-09T04:45:42.755Z,10.65
2019-05-09T04:48:31.854Z,10.48
2019-05-09T04:51:03.490Z,11.05
2019-05-09T04:53:32.708Z,10.36
2019-05-09T04:56:11.929Z,10.34
2019-05-09T04:58:42.714Z,10.73
2019-05-09T05:01:20.520Z,10.90
2019-05-09T05:03:53.702Z,10.81
2019-05-09T05:06:22.751Z,10.89
2019-05-09T05:08:52.672Z,10.93
2019-05-09T05:11:21.787Z,11.26
2019-05-09T05:13:50.856Z,1.72
2019-05-09T05:16:20.272Z,10.69
2019-05-09T05:18:53.016Z,9.95
2019-05-09T05:21:23.466Z,10.30
2019-05-09T05:24:14.789Z,10.36
2019-05-09T05:26:44.532Z,10.13
2019-05-09T05:29:17.501Z,9.98
2019-05-09T05:31:50.089Z,10.42
2019-05-09T05:34:37.793Z,10.30
2019-05-09T05:37:08.733Z,10.70
2019-05-09T05:39:38.998Z,10.61
2019-05-09T05:42:13.668Z,10.48
2019-05-09T05:44:49.397Z,10.46
2019-05-09T05:47:33.054Z,10.80
2019-05-09T05:50:05.591Z,10.88
2019-05-09T05:52:43.800Z,9.13
2019-05-09T05:55:12.978Z,10.64
2019-05-09T05:57:42.177Z,10.77
2019-05-09T06:00:18.159Z,10.51
2019-05-09T06:02:48.102Z,10.36
2019-05-09T06:05:18.710Z,10.62
2019-05-09T06:07:48.441Z,10.78
2019-05-09T06:10:18.598Z,10.64
2019-05-09T06:12:48.393Z,11.13
2019-05-09T06:15:18.396Z,10.75
2019-05-09T06:17:48.557Z,10.94
2019-05-09T06:20:18.038Z,10.84
2019-05-09T06:22:48.877Z,10.72
2019-05-09T06:25:20.875Z,10.59
2019-05-09T06:27:52.039Z,10.21
2019-05-09T06:30:31.145Z,10.22
2019-05-09T06:33:04.635Z,10.36
2019-05-09T06:35:37.905Z,10.64
2019-05-09T06:38:08.139Z,10.44
2019-05-09T06:40:39.503Z,10.68
2019-05-09T06:43:19.325Z,10.93
2019-05-09T06:46:07.942Z,10.72
2019-05-09T06:48:38.457Z,11.28
2019-05-09T06:51:10.134Z,11.64
2019-05-09T06:53:43.755Z,11.68
2019-05-09T06:56:17.834Z,11.33
2019-05-09T06:58:55.448Z,11.19
2019-05-09T07:01:44.949Z,11.17
2019-05-09T07:04:51.162Z,11.18
2019-05-09T07:07:44.237Z,11.13
2019-05-09T07:10:19.886Z,11.16
2019-05-09T07:12:49.268Z,11.83
2019-05-09T07:15:28.282Z,12.11
2019-05-09T07:17:59.902Z,11.64
2019-05-09T07:20:29.114Z,12.25
2019-05-09T07:22:59.483Z,11.92
2019-05-09T07:25:44.257Z,12.00
2019-05-09T07:28:13.605Z,12.16
2019-05-09T07:31:08.140Z,12.37
2019-05-09T07:33:48.832Z,13.09
2019-05-09T07:36:18.938Z,12.50
2019-05-09T07:38:48.759Z,12.28
2019-05-09T07:41:17.967Z,12.70
2019-05-09T07:43:52.284Z,12.97
2019-05-09T07:46:28.835Z,12.53
2019-05-09T07:49:13.643Z,12.37
2019-05-09T07:51:47.749Z,12.28
2019-05-09T07:54:24.740Z,12.23
2019-05-09T07:56:53.004Z,11.79
2019-05-09T07:59:23.930Z,11.88
2019-05-09T08:01:53.055Z,11.88
2019-05-09T08:04:22.160Z,11.80
2019-05-09T08:06:51.229Z,12.00
2019-05-09T08:09:20.527Z,11.75
2019-05-09T08:11:50.630Z,11.32
2019-05-09T08:14:21.113Z,11.69
2019-05-09T08:16:50.433Z,11.62
2019-05-09T08:19:22.517Z,11.23
2019-05-09T08:21:51.573Z,11.55
2019-05-09T08:24:22.218Z,11.54
2019-05-09T08:26:55.184Z,11.68
2019-05-09T08:29:28.161Z,11.64
2019-05-09T08:32:03.853Z,11.76
2019-05-09T08:34:33.931Z,11.08
2019-05-09T08:37:02.976Z,11.15
2019-05-09T08:39:32.030Z,11.75
2019-05-09T08:42:02.481Z,11.46
2019-05-09T08:44:38.274Z,11.52
2019-05-09T08:47:14.585Z,11.52
2019-05-09T08:49:55.621Z,11.57
2019-05-09T08:52:25.764Z,11.71
2019-05-09T08:54:57.893Z,11.22
2019-05-09T08:57:29.538Z,11.12
2019-05-09T08:59:59.084Z,11.35
2019-05-09T09:02:28.521Z,11.18
2019-05-09T09:04:58.538Z,11.08
2019-05-09T09:07:29.713Z,11.30
2019-05-09T09:09:59.047Z,11.33
2019-05-09T09:12:34.230Z,11.53
2019-05-09T09:15:02.284Z,11.53
2019-05-09T09:17:33.489Z,12.22
2019-05-09T09:20:07.535Z,12.29
2019-05-09T09:22:39.601Z,12.07
2019-05-09T09:25:11.225Z,4.36
2019-05-09T09:27:40.551Z,12.38
2019-05-09T09:30:20.397Z,10.64
2019-05-09T09:32:44.068Z,11.98
2019-05-09T09:35:14.818Z,12.02
2019-05-09T09:37:49.505Z,12.26
2019-05-09T09:40:17.723Z,12.40
2019-05-09T09:42:49.166Z,11.89
2019-05-09T09:45:22.627Z,12.51
2019-05-09T09:47:59.276Z,12.38
2019-05-09T09:50:30.857Z,13.46
2019-05-09T09:53:00.199Z,13.05
2019-05-09T09:55:29.304Z,13.50
2019-05-09T09:57:58.436Z,13.18
2019-05-09T10:01:08.839Z,13.42
2019-05-09T10:03:39.310Z,13.63
2019-05-09T10:06:08.365Z,13.28
2019-05-09T10:08:39.651Z,13.56
2019-05-09T10:11:09.889Z,13.90
2019-05-09T10:13:39.152Z,13.52
2019-05-09T10:16:33.294Z,13.48
2019-05-09T10:19:22.366Z,13.17
2019-05-09T10:21:54.841Z,13.24
2019-05-09T10:24:24.703Z,13.46
2019-05-09T10:27:09.519Z,13.64
2019-05-09T10:29:47.985Z,14.24
2019-05-09T10:32:18.150Z,14.02
2019-05-09T10:34:48.792Z,14.05
2019-05-09T10:37:18.648Z,14.14
2019-05-09T10:39:50.936Z,14.01
2019-05-09T10:42:28.632Z,13.79
2019-05-09T10:45:14.617Z,14.05
2019-05-09T10:47:48.449Z,13.70
2019-05-09T10:50:19.397Z,13.55
2019-05-09T10:52:52.361Z,13.78
2019-05-09T10:55:22.097Z,13.86
2019-05-09T10:57:53.023Z,13.64
2019-05-09T11:00:25.811Z,13.58
2019-05-09T11:02:58.180Z,13.95
2019-05-09T11:05:27.785Z,13.52
2019-05-09T11:07:58.842Z,13.11
2019-05-09T11:10:32.821Z,13.15
2019-05-09T11:13:00.905Z,13.07
2019-05-09T11:15:30.284Z,13.33
2019-05-09T11:18:00.524Z,13.19
2019-05-09T11:20:29.575Z,12.85
2019-05-09T11:23:01.155Z,12.57
2019-05-09T11:25:30.601Z,12.35
2019-05-09T11:28:10.972Z,12.13
2019-05-09T11:30:38.559Z,11.98
2019-05-09T11:33:11.010Z,11.87
2019-05-09T11:35:44.365Z,11.79
2019-05-09T11:38:13.598Z,11.77
2019-05-09T11:40:51.254Z,11.85
2019-05-09T11:43:22.662Z,11.76
2019-05-09T11:45:51.867Z,11.69
2019-05-09T11:48:21.094Z,11.78
2019-05-09T11:50:52.824Z,11.71
2019-05-09T11:53:24.706Z,11.78
2019-05-09T11:56:08.131Z,11.68
2019-05-09T11:58:39.902Z,11.74
2019-05-09T12:01:23.080Z,11.73
2019-05-09T12:03:52.618Z,11.95
2019-05-09T12:06:30.595Z,11.81
2019-05-09T12:09:03.210Z,11.87
2019-05-09T12:11:32.572Z,11.66
2019-05-09T12:14:02.833Z,11.89
2019-05-09T12:16:33.813Z,11.87
2019-05-09T12:19:05.274Z,11.72
2019-05-09T12:21:47.639Z,11.91
2019-05-09T12:24:14.720Z,11.97
2019-05-09T12:26:44.083Z,11.90
2019-05-09T12:29:15.201Z,12.08
2019-05-09T12:31:48.319Z,11.99
2019-05-09T12:34:18.941Z,11.76
2019-05-09T12:36:49.509Z,11.99
2019-05-09T12:39:18.792Z,11.98
2019-05-09T12:41:48.717Z,12.02
2019-05-09T12:44:20.498Z,12.28
2019-05-09T12:46:49.531Z,12.41
2019-05-09T12:49:19.900Z,12.61
2019-05-09T12:51:50.778Z,12.52
2019-05-09T12:54:24.128Z,12.67
2019-05-09T12:56:55.518Z,12.42
2019-05-09T12:59:24.597Z,12.46
2019-05-09T13:01:53.654Z,12.79
2019-05-09T13:04:22.993Z,12.42
2019-05-09T13:06:53.466Z,12.37
2019-05-09T13:09:31.466Z,12.53
2019-05-09T13:12:00.646Z,12.74
2019-05-09T13:14:38.005Z,12.69
2019-05-09T13:17:10.887Z,12.75
2019-05-09T13:19:47.876Z,12.67
2019-05-09T13:22:18.470Z,12.79
2019-05-09T13:24:47.561Z,12.98
2019-05-09T13:27:18.995Z,13.00
2019-05-09T13:29:49.301Z,11.24
2019-05-09T13:32:20.133Z,12.71
2019-05-09T13:34:53.816Z,12.81
2019-05-09T13:37:30.291Z,12.98
2019-05-09T13:40:08.372Z,12.99
2019-05-09T13:42:39.537Z,12.93
2019-05-09T13:45:08.442Z,12.89
2019-05-09T13:47:42.707Z,12.70
2019-05-09T13:50:12.273Z,12.69
2019-05-09T13:52:43.237Z,12.63
2019-05-09T13:55:14.682Z,12.82
2019-05-09T13:57:43.773Z,12.81
2019-05-09T14:03:01.698Z,13.03
2019-05-09T14:05:32.732Z,13.14
2019-05-09T14:08:11.869Z,12.76
2019-05-09T14:10:43.129Z,12.94
2019-05-09T14:13:19.089Z,12.83
2019-05-09T14:15:50.239Z,12.83
2019-05-09T14:18:19.751Z,12.77
2019-05-09T14:20:48.748Z,12.71
2019-05-09T14:23:19.171Z,12.70
2019-05-09T14:25:54.512Z,12.84
2019-05-09T14:28:28.716Z,12.70
2019-05-09T14:30:59.431Z,12.89
2019-05-09T14:33:29.625Z,12.86
2019-05-09T14:36:01.863Z,12.72
2019-05-09T14:38:33.959Z,12.76
2019-05-09T14:41:09.087Z,12.74
2019-05-09T14:43:44.149Z,13.02
2019-05-09T14:46:13.218Z,13.02
2019-05-09T14:48:45.081Z,12.97
2019-05-09T14:51:18.650Z,12.81
2019-05-09T14:53:54.414Z,12.87
2019-05-09T14:56:23.516Z,12.67
2019-05-09T14:58:52.543Z,12.57
2019-05-09T15:01:21.639Z,12.43
2019-05-09T15:03:50.710Z,12.43
2019-05-09T15:06:19.789Z,12.43
2019-05-09T15:08:48.872Z,12.51
2019-05-09T15:11:18.377Z,12.70
2019-05-09T15:13:50.400Z,12.44
2019-05-09T15:16:24.053Z,12.72
2019-05-09T15:18:53.102Z,12.67
2019-05-09T15:21:22.573Z,12.66
2019-05-09T15:23:52.066Z,12.66
2019-05-09T15:26:21.619Z,12.75
2019-05-09T15:28:52.388Z,5.75
2019-05-09T15:31:21.817Z,12.66
2019-05-09T15:33:50.907Z,13.03
2019-05-09T15:36:22.562Z,12.66
2019-05-09T15:39:01.868Z,13.00
2019-05-09T15:41:22.522Z,12.99
2019-05-09T15:43:52.637Z,13.21
2019-05-09T15:46:38.407Z,11.74
2019-05-09T15:49:19.810Z,13.05
2019-05-09T15:51:48.895Z,13.08
2019-05-09T15:54:18.079Z,13.20
2019-05-09T15:56:48.354Z,13.32
2019-05-09T15:59:20.760Z,13.26
2019-05-09T16:01:51.908Z,13.33
2019-05-09T16:04:21.160Z,13.22
2019-05-09T16:06:51.666Z,13.22
2019-05-09T16:09:23.802Z,13.15
2019-05-09T16:11:54.639Z,13.42
2019-05-09T16:14:23.671Z,13.36
2019-05-09T16:16:54.813Z,13.33
2019-05-09T16:19:23.858Z,13.16
2019-05-09T16:21:53.335Z,13.36
2019-05-09T16:24:22.398Z,13.35
2019-05-09T16:26:54.286Z,13.09
2019-05-09T16:29:31.959Z,13.59
2019-05-09T16:32:04.404Z,13.42
2019-05-09T16:34:38.544Z,13.56
2019-05-09T16:37:09.847Z,13.34
2019-05-09T16:39:41.926Z,13.34
2019-05-09T16:42:12.129Z,13.32
2019-05-09T16:44:41.869Z,13.27
2019-05-09T16:47:11.163Z,13.21
2019-05-09T16:49:40.820Z,13.35
2019-05-09T16:52:10.429Z,13.26
2019-05-09T16:54:44.401Z,12.97
2019-05-09T16:57:13.681Z,13.06
2019-05-09T16:59:43.043Z,13.22
2019-05-09T17:02:21.815Z,13.04
2019-05-09T17:04:48.247Z,13.08
2019-05-09T17:07:19.063Z,13.21
2019-05-09T17:09:49.222Z,12.95
2019-05-09T17:12:18.708Z,13.18
2019-05-09T17:14:47.965Z,13.29
2019-05-09T17:17:17.914Z,13.58
2019-05-09T17:19:48.057Z,13.59
2019-05-09T17:22:35.618Z,13.46
2019-05-09T17:25:10.078Z,13.45
2019-05-09T17:27:42.503Z,13.20
2019-05-09T17:30:11.659Z,13.22
2019-05-09T17:32:40.754Z,13.18
2019-05-09T17:35:11.327Z,13.37
2019-05-09T17:37:40.891Z,13.17
2019-05-09T17:40:11.803Z,13.13
2019-05-09T17:42:40.870Z,13.03
2019-05-09T17:45:09.929Z,13.17
2019-05-09T17:47:40.055Z,13.33
2019-05-09T17:50:09.240Z,13.23
2019-05-09T17:52:42.833Z,13.23
2019-05-09T17:55:11.963Z,13.41
2019-05-09T17:57:41.992Z,13.10
2019-05-09T18:00:12.432Z,13.10
2019-05-09T18:02:48.435Z,12.84
2019-05-09T18:05:18.677Z,13.05
2019-05-09T18:07:50.276Z,6.94
2019-05-09T18:10:20.797Z,12.95
2019-05-09T18:12:52.425Z,12.81
2019-05-09T18:15:22.430Z,13.26
2019-05-09T18:17:51.495Z,13.15
2019-05-09T18:20:20.774Z,13.15
2019-05-09T18:22:50.126Z,13.47
2019-05-09T18:25:21.763Z,13.21
2019-05-09T18:27:50.859Z,13.25
2019-05-09T18:30:22.846Z,13.12
2019-05-09T18:33:00.934Z,13.33
2019-05-09T18:35:33.486Z,13.30
2019-05-09T18:38:04.875Z,13.18
2019-05-09T18:40:34.016Z,12.93
2019-05-09T18:43:03.150Z,13.19
2019-05-09T18:45:32.663Z,13.23
2019-05-09T18:48:03.500Z,13.03
2019-05-09T18:50:32.575Z,12.78
2019-05-09T18:53:01.625Z,12.81
2019-05-09T18:55:31.856Z,12.46
2019-05-09T18:58:02.395Z,12.61
2019-05-09T19:00:34.453Z,12.43
2019-05-09T19:03:03.548Z,12.26
2019-05-09T19:05:32.699Z,12.24
2019-05-09T19:08:02.009Z,12.04
2019-05-09T19:10:32.388Z,12.05
2019-05-09T19:13:03.789Z,12.12
2019-05-09T19:15:39.167Z,12.10
2019-05-09T19:18:17.728Z,12.00
2019-05-09T19:21:06.037Z,12.04
2019-05-09T19:23:35.467Z,11.94
2019-05-09T19:26:08.916Z,12.06
2019-05-09T19:28:43.235Z,11.93
2019-05-09T19:31:12.327Z,11.99
2019-05-09T19:33:41.382Z,12.15
2019-05-09T19:36:10.549Z,12.05
2019-05-09T19:38:40.857Z,11.99
2019-05-09T19:41:11.046Z,11.99
2019-05-09T19:43:41.843Z,12.02
2019-05-09T19:46:11.034Z,11.95
2019-05-09T19:48:45.197Z,11.98
2019-05-09T19:51:16.815Z,11.79
2019-05-09T19:53:45.858Z,11.65
2019-05-09T19:56:15.110Z,11.86
2019-05-09T19:58:45.870Z,11.83
2019-05-09T20:01:16.247Z,11.74
2019-05-09T20:03:47.274Z,11.78
2019-05-09T20:06:16.621Z,11.74
2019-05-09T20:08:46.158Z,11.70
2019-05-09T20:11:22.028Z,11.68
2019-05-09T20:14:22.423Z,11.64
2019-05-09T20:16:55.747Z,11.66
2019-05-09T20:19:27.954Z,11.52
2019-05-09T20:21:57.300Z,11.54
2019-05-09T20:24:29.865Z,11.65
2019-05-09T20:27:00.194Z,11.72
2019-05-09T20:29:31.071Z,11.59
2019-05-09T20:32:02.537Z,11.56
2019-05-09T20:34:33.979Z,11.96
2019-05-09T20:37:04.469Z,11.77
2019-05-09T20:39:38.263Z,11.78
2019-05-09T20:42:07.521Z,12.06
2019-05-09T20:44:36.851Z,12.04
2019-05-09T20:47:09.368Z,11.96
2019-05-09T20:49:38.591Z,12.15
2019-05-09T20:52:14.493Z,12.17
2019-05-09T20:54:43.722Z,11.66
2019-05-09T20:57:17.213Z,11.82
2019-05-09T20:59:49.245Z,11.68
2019-05-09T21:02:26.204Z,11.49
2019-05-09T21:04:58.983Z,11.61
2019-05-09T21:07:29.524Z,11.64
2019-05-09T21:10:01.981Z,11.47
2019-05-09T21:12:31.236Z,11.63
2019-05-09T21:15:01.468Z,11.69
2019-05-09T21:17:33.341Z,11.64
2019-05-09T21:20:04.996Z,11.77
2019-05-09T21:22:34.270Z,11.45
2019-05-09T21:25:04.819Z,11.54
2019-05-09T21:27:34.134Z,11.95
2019-05-09T21:30:03.523Z,12.13
2019-05-09T21:32:32.801Z,11.94
2019-05-09T21:35:05.633Z,12.26
2019-05-09T21:37:35.412Z,11.88
2019-05-09T21:40:08.242Z,12.02
2019-05-09T21:42:42.651Z,11.81
2019-05-09T21:45:17.020Z,11.89
2019-05-09T21:47:47.135Z,11.75
2019-05-09T21:50:16.218Z,11.78
2019-05-09T21:52:47.041Z,11.70
2019-05-09T21:55:17.552Z,11.63
2019-05-09T21:57:50.798Z,11.41
2019-05-09T22:00:24.384Z,11.50
2019-05-09T22:02:55.155Z,11.52
2019-05-09T22:05:24.450Z,12.08
2019-05-09T22:07:54.614Z,11.94
2019-05-09T22:10:25.200Z,11.93
2019-05-09T22:12:54.286Z,12.01
2019-05-09T22:15:23.329Z,11.64
2019-05-09T22:17:52.756Z,11.75
2019-05-09T22:20:25.602Z,11.67
2019-05-09T22:22:55.951Z,11.67
2019-05-09T22:25:26.148Z,11.54
2019-05-09T22:28:01.009Z,11.56
2019-05-09T22:30:32.260Z,11.75
2019-05-09T22:33:01.315Z,11.57
2019-05-09T22:35:30.342Z,11.49
2019-05-09T22:38:01.588Z,11.72
2019-05-09T22:40:30.985Z,11.55
2019-05-09T22:43:00.043Z,11.53
2019-05-09T22:45:31.899Z,11.46
2019-05-09T22:48:04.156Z,11.48
2019-05-09T22:50:36.244Z,11.62
2019-05-09T22:53:05.409Z,11.65
2019-05-09T22:55:34.436Z,11.77
2019-05-09T22:58:03.783Z,12.17
2019-05-09T23:00:33.947Z,11.88
2019-05-09T23:03:26.616Z,12.05
2019-05-09T23:05:55.697Z,12.09
2019-05-09T23:08:24.793Z,11.82
2019-05-09T23:10:53.866Z,11.64
2019-05-09T23:13:22.945Z,11.70
2019-05-09T23:15:52.111Z,12.19
2019-05-09T23:18:21.222Z,11.86
2019-05-09T23:20:59.543Z,11.93
2019-05-09T23:23:44.081Z,11.87
2019-05-09T23:26:19.069Z,12.07
2019-05-09T23:28:48.269Z,11.95
2019-05-09T23:31:21.496Z,12.12
2019-05-09T23:33:51.743Z,12.35
2019-05-09T23:36:25.215Z,11.94
2019-05-09T23:39:18.403Z,11.90
2019-05-09T23:41:50.474Z,11.77
2019-05-09T23:44:19.626Z,12.00
2019-05-09T23:46:51.804Z,12.45
2019-05-09T23:49:24.274Z,12.68
2019-05-09T23:51:53.376Z,12.25
2019-05-09T23:54:46.735Z,12.16
2019-05-09T23:57:29.667Z,12.55
